sensor_id;sensor_type;location;lat;lon;timestamp;P1;durP1;ratioP1;P2;durP2;ratioP2
36371;SDS011;22398;51.346;12.372;2023-04-01T00:04:52;3.35;;;0.82;;
36371;SDS011;22398;51.346;12.372;2023-04-01T00:09:55;1.57;;;0.50;;
36371;SDS011;22398;51.346;12.372;2023-04-01T00:14:58;3.38;;;1.00;;
36371;SDS011;22398;51.346;12.372;2023-04-01T00:20:03;2.65;;;0.70;;
36371;SDS011;22398;51.346;12.372;2023-04-01T00:25:08;3.08;;;1.08;;
36371;SDS011;22398;51.346;12.372;2023-04-01T00:30:12;3.13;;;0.88;;
36371;SDS011;22398;51.346;12.372;2023-04-01T00:35:18;3.15;;;1.15;;
36371;SDS011;22398;51.346;12.372;2023-04-01T00:40:23;3.60;;;0.77;;
36371;SDS011;22398;51.346;12.372;2023-04-01T00:45:30;8.15;;;1.73;;
36371;SDS011;22398;51.346;12.372;2023-04-01T00:50:37;3.55;;;0.80;;
36371;SDS011;22398;51.346;12.372;2023-04-01T00:55:45;4.68;;;1.00;;
36371;SDS011;22398;51.346;12.372;2023-04-01T01:00:52;3.03;;;1.10;;
36371;SDS011;22398;51.346;12.372;2023-04-01T01:06:04;6.88;;;1.20;;
36371;SDS011;22398;51.346;12.372;2023-04-01T01:11:14;7.20;;;1.25;;
36371;SDS011;22398;51.346;12.372;2023-04-01T01:16:24;4.75;;;1.00;;
36371;SDS011;22398;51.346;12.372;2023-04-01T01:21:43;5.05;;;1.23;;
36371;SDS011;22398;51.346;12.372;2023-04-01T01:26:59;2.97;;;1.00;;
36371;SDS011;22398;51.346;12.372;2023-04-01T01:32:09;3.08;;;0.88;;
36371;SDS011;22398;51.346;12.372;2023-04-01T01:37:22;4.38;;;0.85;;
36371;SDS011;22398;51.346;12.372;2023-04-01T01:42:29;6.97;;;1.05;;
36371;SDS011;22398;51.346;12.372;2023-04-01T01:47:36;2.70;;;0.65;;
36371;SDS011;22398;51.346;12.372;2023-04-01T01:52:42;4.80;;;0.80;;
36371;SDS011;22398;51.346;12.372;2023-04-01T01:57:46;2.65;;;0.82;;
36371;SDS011;22398;51.346;12.372;2023-04-01T02:02:50;6.63;;;1.15;;
36371;SDS011;22398;51.346;12.372;2023-04-01T02:07:57;1.52;;;0.80;;
36371;SDS011;22398;51.346;12.372;2023-04-01T02:13:05;2.40;;;0.90;;
36371;SDS011;22398;51.346;12.372;2023-04-01T02:18:15;6.10;;;1.05;;
36371;SDS011;22398;51.346;12.372;2023-04-01T02:28:25;6.95;;;2.53;;
36371;SDS011;22398;51.346;12.372;2023-04-01T02:38:36;13.15;;;3.60;;
36371;SDS011;22398;51.346;12.372;2023-04-01T02:43:40;4.30;;;0.90;;
36371;SDS011;22398;51.346;12.372;2023-04-01T02:48:43;4.82;;;1.08;;
36371;SDS011;22398;51.346;12.372;2023-04-01T02:53:48;3.80;;;0.68;;
36371;SDS011;22398;51.346;12.372;2023-04-01T02:58:52;3.08;;;0.50;;
36371;SDS011;22398;51.346;12.372;2023-04-01T03:03:56;8.05;;;0.80;;
36371;SDS011;22398;51.346;12.372;2023-04-01T03:09:01;1.75;;;0.63;;
36371;SDS011;22398;51.346;12.372;2023-04-01T03:14:05;2.67;;;0.45;;
36371;SDS011;22398;51.346;12.372;2023-04-01T03:19:09;3.45;;;0.63;;
36371;SDS011;22398;51.346;12.372;2023-04-01T03:24:14;2.20;;;0.65;;
36371;SDS011;22398;51.346;12.372;2023-04-01T03:29:17;1.73;;;0.65;;
36371;SDS011;22398;51.346;12.372;2023-04-01T03:34:21;5.65;;;0.90;;
36371;SDS011;22398;51.346;12.372;2023-04-01T03:39:26;2.05;;;0.65;;
36371;SDS011;22398;51.346;12.372;2023-04-01T03:44:30;4.67;;;0.70;;
36371;SDS011;22398;51.346;12.372;2023-04-01T03:49:34;4.95;;;0.80;;
36371;SDS011;22398;51.346;12.372;2023-04-01T03:54:39;3.63;;;0.95;;
36371;SDS011;22398;51.346;12.372;2023-04-01T03:59:43;3.08;;;0.98;;
36371;SDS011;22398;51.346;12.372;2023-04-01T04:04:47;2.72;;;0.77;;
36371;SDS011;22398;51.346;12.372;2023-04-01T04:09:51;5.10;;;0.80;;
36371;SDS011;22398;51.346;12.372;2023-04-01T04:14:55;3.27;;;1.00;;
36371;SDS011;22398;51.346;12.372;2023-04-01T04:19:58;3.47;;;0.68;;
36371;SDS011;22398;51.346;12.372;2023-04-01T04:25:03;5.80;;;0.85;;
36371;SDS011;22398;51.346;12.372;2023-04-01T04:30:08;2.03;;;0.57;;
36371;SDS011;22398;51.346;12.372;2023-04-01T04:35:12;4.07;;;0.93;;
36371;SDS011;22398;51.346;12.372;2023-04-01T04:40:18;6.30;;;1.02;;
36371;SDS011;22398;51.346;12.372;2023-04-01T04:45:21;3.00;;;1.00;;
36371;SDS011;22398;51.346;12.372;2023-04-01T04:50:28;7.75;;;0.77;;
36371;SDS011;22398;51.346;12.372;2023-04-01T04:55:33;10.30;;;1.00;;
36371;SDS011;22398;51.346;12.372;2023-04-01T05:00:55;4.95;;;0.82;;
36371;SDS011;22398;51.346;12.372;2023-04-01T05:06:03;3.85;;;0.93;;
36371;SDS011;22398;51.346;12.372;2023-04-01T05:11:09;3.80;;;1.02;;
36371;SDS011;22398;51.346;12.372;2023-04-01T05:16:17;2.90;;;0.88;;
36371;SDS011;22398;51.346;12.372;2023-04-01T05:21:22;2.28;;;0.70;;
36371;SDS011;22398;51.346;12.372;2023-04-01T05:26:29;2.35;;;0.73;;
36371;SDS011;22398;51.346;12.372;2023-04-01T05:31:34;4.78;;;0.73;;
36371;SDS011;22398;51.346;12.372;2023-04-01T05:36:38;3.88;;;1.08;;
36371;SDS011;22398;51.346;12.372;2023-04-01T05:41:44;5.47;;;1.50;;
36371;SDS011;22398;51.346;12.372;2023-04-01T05:46:50;2.47;;;0.55;;
36371;SDS011;22398;51.346;12.372;2023-04-01T05:51:59;3.53;;;0.80;;
36371;SDS011;22398;51.346;12.372;2023-04-01T05:57:04;6.90;;;1.05;;
36371;SDS011;22398;51.346;12.372;2023-04-01T06:02:08;4.22;;;0.70;;
36371;SDS011;22398;51.346;12.372;2023-04-01T06:07:12;2.85;;;0.70;;
36371;SDS011;22398;51.346;12.372;2023-04-01T06:12:22;4.70;;;0.60;;
36371;SDS011;22398;51.346;12.372;2023-04-01T06:17:41;1.88;;;0.90;;
36371;SDS011;22398;51.346;12.372;2023-04-01T06:28:41;6.63;;;0.80;;
36371;SDS011;22398;51.346;12.372;2023-04-01T06:34:05;2.00;;;0.50;;
36371;SDS011;22398;51.346;12.372;2023-04-01T06:39:25;2.28;;;0.60;;
36371;SDS011;22398;51.346;12.372;2023-04-01T06:44:40;3.35;;;0.70;;
36371;SDS011;22398;51.346;12.372;2023-04-01T06:50:19;1.40;;;0.52;;
36371;SDS011;22398;51.346;12.372;2023-04-01T06:55:47;4.95;;;0.80;;
36371;SDS011;22398;51.346;12.372;2023-04-01T07:01:27;2.50;;;0.50;;
36371;SDS011;22398;51.346;12.372;2023-04-01T07:06:36;1.55;;;1.08;;
36371;SDS011;22398;51.346;12.372;2023-04-01T07:11:42;2.55;;;0.80;;
36371;SDS011;22398;51.346;12.372;2023-04-01T07:17:07;5.97;;;0.98;;
36371;SDS011;22398;51.346;12.372;2023-04-01T07:22:17;2.90;;;0.77;;
36371;SDS011;22398;51.346;12.372;2023-04-01T07:27:38;3.72;;;1.00;;
36371;SDS011;22398;51.346;12.372;2023-04-01T07:32:44;2.38;;;1.20;;
36371;SDS011;22398;51.346;12.372;2023-04-01T07:37:58;2.13;;;0.68;;
36371;SDS011;22398;51.346;12.372;2023-04-01T07:49:10;1.25;;;0.50;;
36371;SDS011;22398;51.346;12.372;2023-04-01T07:54:21;0.77;;;0.43;;
36371;SDS011;22398;51.346;12.372;2023-04-01T07:59:30;2.72;;;0.35;;
36371;SDS011;22398;51.346;12.372;2023-04-01T08:04:57;3.42;;;0.75;;
36371;SDS011;22398;51.346;12.372;2023-04-01T08:10:08;1.02;;;0.43;;
36371;SDS011;22398;51.346;12.372;2023-04-01T08:15:37;8.02;;;0.60;;
36371;SDS011;22398;51.346;12.372;2023-04-01T08:20:57;1.30;;;0.50;;
36371;SDS011;22398;51.346;12.372;2023-04-01T08:26:04;0.38;;;0.30;;
36371;SDS011;22398;51.346;12.372;2023-04-01T08:31:16;2.65;;;0.60;;
36371;SDS011;22398;51.346;12.372;2023-04-01T08:36:28;0.93;;;0.45;;
36371;SDS011;22398;51.346;12.372;2023-04-01T08:41:52;3.67;;;0.50;;
36371;SDS011;22398;51.346;12.372;2023-04-01T08:47:29;3.45;;;0.55;;
36371;SDS011;22398;51.346;12.372;2023-04-01T08:52:44;1.52;;;0.35;;
36371;SDS011;22398;51.346;12.372;2023-04-01T08:58:11;0.93;;;0.40;;
36371;SDS011;22398;51.346;12.372;2023-04-01T09:04:03;3.45;;;0.88;;
36371;SDS011;22398;51.346;12.372;2023-04-01T09:09:24;3.70;;;0.70;;
36371;SDS011;22398;51.346;12.372;2023-04-01T09:15:02;4.88;;;1.00;;
36371;SDS011;22398;51.346;12.372;2023-04-01T09:20:26;2.38;;;1.42;;
36371;SDS011;22398;51.346;12.372;2023-04-01T09:26:00;1.73;;;0.68;;
36371;SDS011;22398;51.346;12.372;2023-04-01T09:31:26;1.47;;;0.60;;
36371;SDS011;22398;51.346;12.372;2023-04-01T09:37:19;6.88;;;2.83;;
36371;SDS011;22398;51.346;12.372;2023-04-01T09:42:37;1.25;;;0.55;;
36371;SDS011;22398;51.346;12.372;2023-04-01T09:47:57;1.38;;;0.57;;
36371;SDS011;22398;51.346;12.372;2023-04-01T09:53:14;5.10;;;0.68;;
36371;SDS011;22398;51.346;12.372;2023-04-01T09:58:48;5.40;;;0.77;;
36371;SDS011;22398;51.346;12.372;2023-04-01T10:10:13;3.65;;;0.55;;
36371;SDS011;22398;51.346;12.372;2023-04-01T10:27:21;3.05;;;0.68;;
36371;SDS011;22398;51.346;12.372;2023-04-01T10:38:32;3.67;;;0.88;;
36371;SDS011;22398;51.346;12.372;2023-04-01T10:49:40;1.08;;;0.50;;
36371;SDS011;22398;51.346;12.372;2023-04-01T10:55:04;1.25;;;0.40;;
36371;SDS011;22398;51.346;12.372;2023-04-01T11:01:02;1.67;;;0.40;;
36371;SDS011;22398;51.346;12.372;2023-04-01T11:07:17;1.10;;;0.30;;
36371;SDS011;22398;51.346;12.372;2023-04-01T11:12:41;3.10;;;0.88;;
36371;SDS011;22398;51.346;12.372;2023-04-01T11:18:16;2.47;;;0.68;;
36371;SDS011;22398;51.346;12.372;2023-04-01T11:35:08;2.53;;;0.50;;
36371;SDS011;22398;51.346;12.372;2023-04-01T11:40:31;1.15;;;0.40;;
36371;SDS011;22398;51.346;12.372;2023-04-01T11:46:19;0.75;;;0.40;;
36371;SDS011;22398;51.346;12.372;2023-04-01T11:51:36;3.13;;;0.22;;
36371;SDS011;22398;51.346;12.372;2023-04-01T11:57:01;3.30;;;0.35;;
36371;SDS011;22398;51.346;12.372;2023-04-01T12:02:17;2.10;;;0.50;;
36371;SDS011;22398;51.346;12.372;2023-04-01T12:07:36;0.38;;;0.30;;
36371;SDS011;22398;51.346;12.372;2023-04-01T12:12:57;3.95;;;0.70;;
36371;SDS011;22398;51.346;12.372;2023-04-01T12:18:06;2.10;;;0.70;;
36371;SDS011;22398;51.346;12.372;2023-04-01T12:23:27;3.75;;;0.80;;
36371;SDS011;22398;51.346;12.372;2023-04-01T12:28:47;5.75;;;0.90;;
36371;SDS011;22398;51.346;12.372;2023-04-01T12:34:07;2.13;;;0.70;;
36371;SDS011;22398;51.346;12.372;2023-04-01T12:39:33;0.82;;;0.65;;
36371;SDS011;22398;51.346;12.372;2023-04-01T12:44:59;1.63;;;0.70;;
36371;SDS011;22398;51.346;12.372;2023-04-01T12:50:16;3.30;;;0.97;;
36371;SDS011;22398;51.346;12.372;2023-04-01T12:55:41;4.68;;;1.10;;
36371;SDS011;22398;51.346;12.372;2023-04-01T13:00:52;8.10;;;2.10;;
36371;SDS011;22398;51.346;12.372;2023-04-01T13:11:34;3.22;;;1.27;;
36371;SDS011;22398;51.346;12.372;2023-04-01T13:16:48;3.30;;;1.27;;
36371;SDS011;22398;51.346;12.372;2023-04-01T13:21:59;3.95;;;1.50;;
36371;SDS011;22398;51.346;12.372;2023-04-01T13:27:12;2.13;;;0.75;;
36371;SDS011;22398;51.346;12.372;2023-04-01T13:32:28;1.48;;;0.90;;
36371;SDS011;22398;51.346;12.372;2023-04-01T13:37:44;1.42;;;0.73;;
36371;SDS011;22398;51.346;12.372;2023-04-01T13:42:57;1.05;;;0.43;;
36371;SDS011;22398;51.346;12.372;2023-04-01T13:48:15;1.52;;;0.60;;
36371;SDS011;22398;51.346;12.372;2023-04-01T13:53:37;1.13;;;0.95;;
36371;SDS011;22398;51.346;12.372;2023-04-01T13:59:05;1.35;;;0.47;;
36371;SDS011;22398;51.346;12.372;2023-04-01T14:09:58;1.27;;;0.50;;
36371;SDS011;22398;51.346;12.372;2023-04-01T14:15:14;0.98;;;0.40;;
36371;SDS011;22398;51.346;12.372;2023-04-01T14:20:39;0.93;;;0.20;;
36371;SDS011;22398;51.346;12.372;2023-04-01T14:25:54;0.60;;;0.43;;
36371;SDS011;22398;51.346;12.372;2023-04-01T14:31:23;1.77;;;0.40;;
36371;SDS011;22398;51.346;12.372;2023-04-01T14:36:43;1.33;;;0.50;;
36371;SDS011;22398;51.346;12.372;2023-04-01T14:42:06;1.20;;;0.52;;
36371;SDS011;22398;51.346;12.372;2023-04-01T14:47:36;2.75;;;0.63;;
36371;SDS011;22398;51.346;12.372;2023-04-01T14:52:49;1.02;;;0.55;;
36371;SDS011;22398;51.346;12.372;2023-04-01T14:58:09;0.73;;;0.55;;
36371;SDS011;22398;51.346;12.372;2023-04-01T15:03:14;4.73;;;0.60;;
36371;SDS011;22398;51.346;12.372;2023-04-01T15:08:27;2.47;;;0.60;;
36371;SDS011;22398;51.346;12.372;2023-04-01T15:13:38;0.25;;;0.22;;
36371;SDS011;22398;51.346;12.372;2023-04-01T15:19:03;0.63;;;0.47;;
36371;SDS011;22398;51.346;12.372;2023-04-01T15:24:16;3.15;;;1.00;;
36371;SDS011;22398;51.346;12.372;2023-04-01T15:29:30;2.03;;;0.65;;
36371;SDS011;22398;51.346;12.372;2023-04-01T15:34:44;5.97;;;1.92;;
36371;SDS011;22398;51.346;12.372;2023-04-01T15:39:57;11.50;;;3.60;;
36371;SDS011;22398;51.346;12.372;2023-04-01T15:45:14;1.52;;;0.73;;
36371;SDS011;22398;51.346;12.372;2023-04-01T15:50:43;3.45;;;0.80;;
36371;SDS011;22398;51.346;12.372;2023-04-01T15:55:56;1.52;;;0.60;;
36371;SDS011;22398;51.346;12.372;2023-04-01T16:01:04;1.70;;;0.77;;
36371;SDS011;22398;51.346;12.372;2023-04-01T16:06:20;2.97;;;0.93;;
36371;SDS011;22398;51.346;12.372;2023-04-01T16:11:39;1.48;;;0.70;;
36371;SDS011;22398;51.346;12.372;2023-04-01T16:16:53;1.52;;;0.93;;
36371;SDS011;22398;51.346;12.372;2023-04-01T16:22:08;2.53;;;1.30;;
36371;SDS011;22398;51.346;12.372;2023-04-01T16:27:23;1.05;;;0.73;;
36371;SDS011;22398;51.346;12.372;2023-04-01T16:32:33;1.65;;;0.68;;
36371;SDS011;22398;51.346;12.372;2023-04-01T16:37:43;6.20;;;1.52;;
36371;SDS011;22398;51.346;12.372;2023-04-01T16:42:55;4.38;;;1.10;;
36371;SDS011;22398;51.346;12.372;2023-04-01T16:48:10;2.93;;;1.37;;
36371;SDS011;22398;51.346;12.372;2023-04-01T16:53:17;6.25;;;2.13;;
36371;SDS011;22398;51.346;12.372;2023-04-01T16:58:34;7.20;;;2.08;;
36371;SDS011;22398;51.346;12.372;2023-04-01T17:03:40;3.90;;;1.73;;
36371;SDS011;22398;51.346;12.372;2023-04-01T17:08:59;11.27;;;2.63;;
36371;SDS011;22398;51.346;12.372;2023-04-01T17:19:27;6.68;;;2.30;;
36371;SDS011;22398;51.346;12.372;2023-04-01T17:24:47;3.63;;;1.63;;
36371;SDS011;22398;51.346;12.372;2023-04-01T17:30:03;4.10;;;1.85;;
36371;SDS011;22398;51.346;12.372;2023-04-01T17:35:17;2.75;;;1.50;;
36371;SDS011;22398;51.346;12.372;2023-04-01T17:40:31;4.85;;;2.05;;
36371;SDS011;22398;51.346;12.372;2023-04-01T17:45:44;9.35;;;3.50;;
36371;SDS011;22398;51.346;12.372;2023-04-01T17:50:55;4.70;;;2.28;;
36371;SDS011;22398;51.346;12.372;2023-04-01T17:56:12;4.07;;;1.50;;
36371;SDS011;22398;51.346;12.372;2023-04-01T18:01:30;6.82;;;1.88;;
36371;SDS011;22398;51.346;12.372;2023-04-01T18:06:47;7.10;;;2.03;;
36371;SDS011;22398;51.346;12.372;2023-04-01T18:12:06;4.03;;;1.80;;
36371;SDS011;22398;51.346;12.372;2023-04-01T18:17:23;2.92;;;1.80;;
36371;SDS011;22398;51.346;12.372;2023-04-01T18:22:29;2.80;;;1.75;;
36371;SDS011;22398;51.346;12.372;2023-04-01T18:27:41;3.13;;;1.83;;
36371;SDS011;22398;51.346;12.372;2023-04-01T18:32:49;3.22;;;1.95;;
36371;SDS011;22398;51.346;12.372;2023-04-01T18:37:56;3.95;;;2.33;;
36371;SDS011;22398;51.346;12.372;2023-04-01T18:43:16;3.83;;;1.98;;
36371;SDS011;22398;51.346;12.372;2023-04-01T18:48:46;7.82;;;3.13;;
36371;SDS011;22398;51.346;12.372;2023-04-01T18:53:55;5.95;;;1.73;;
36371;SDS011;22398;51.346;12.372;2023-04-01T18:59:03;3.45;;;1.80;;
36371;SDS011;22398;51.346;12.372;2023-04-01T19:04:14;4.43;;;1.73;;
36371;SDS011;22398;51.346;12.372;2023-04-01T19:09:24;6.50;;;2.47;;
36371;SDS011;22398;51.346;12.372;2023-04-01T19:14:33;4.82;;;2.17;;
36371;SDS011;22398;51.346;12.372;2023-04-01T19:19:53;5.70;;;2.28;;
36371;SDS011;22398;51.346;12.372;2023-04-01T19:25:10;3.78;;;2.20;;
36371;SDS011;22398;51.346;12.372;2023-04-01T19:30:41;7.93;;;1.83;;
36371;SDS011;22398;51.346;12.372;2023-04-01T19:35:56;3.45;;;2.20;;
36371;SDS011;22398;51.346;12.372;2023-04-01T19:41:12;2.70;;;1.85;;
36371;SDS011;22398;51.346;12.372;2023-04-01T19:46:28;3.42;;;1.98;;
36371;SDS011;22398;51.346;12.372;2023-04-01T19:51:39;3.35;;;1.95;;
36371;SDS011;22398;51.346;12.372;2023-04-01T19:56:47;3.15;;;2.10;;
36371;SDS011;22398;51.346;12.372;2023-04-01T20:01:57;6.38;;;2.20;;
36371;SDS011;22398;51.346;12.372;2023-04-01T20:07:19;4.05;;;2.60;;
36371;SDS011;22398;51.346;12.372;2023-04-01T20:12:33;3.22;;;2.00;;
36371;SDS011;22398;51.346;12.372;2023-04-01T20:17:46;3.40;;;2.10;;
36371;SDS011;22398;51.346;12.372;2023-04-01T20:23:06;3.38;;;2.13;;
36371;SDS011;22398;51.346;12.372;2023-04-01T20:28:28;4.57;;;2.35;;
36371;SDS011;22398;51.346;12.372;2023-04-01T20:33:52;5.93;;;2.17;;
36371;SDS011;22398;51.346;12.372;2023-04-01T20:39:34;5.57;;;2.67;;
36371;SDS011;22398;51.346;12.372;2023-04-01T20:44:52;3.42;;;2.53;;
36371;SDS011;22398;51.346;12.372;2023-04-01T20:50:08;3.65;;;2.17;;
36371;SDS011;22398;51.346;12.372;2023-04-01T21:01:03;3.92;;;2.53;;
36371;SDS011;22398;51.346;12.372;2023-04-01T21:11:41;3.88;;;2.40;;
36371;SDS011;22398;51.346;12.372;2023-04-01T21:16:55;4.17;;;2.70;;
36371;SDS011;22398;51.346;12.372;2023-04-01T21:22:17;6.15;;;3.15;;
36371;SDS011;22398;51.346;12.372;2023-04-01T21:27:48;4.10;;;2.58;;
36371;SDS011;22398;51.346;12.372;2023-04-01T21:33:29;3.92;;;2.33;;
36371;SDS011;22398;51.346;12.372;2023-04-01T21:38:49;4.40;;;2.88;;
36371;SDS011;22398;51.346;12.372;2023-04-01T21:44:14;6.15;;;3.20;;
36371;SDS011;22398;51.346;12.372;2023-04-01T21:49:38;6.65;;;2.88;;
36371;SDS011;22398;51.346;12.372;2023-04-01T21:55:09;4.70;;;3.00;;
36371;SDS011;22398;51.346;12.372;2023-04-01T22:00:57;3.72;;;2.75;;
36371;SDS011;22398;51.346;12.372;2023-04-01T22:11:19;5.75;;;3.50;;
36371;SDS011;22398;51.346;12.372;2023-04-01T22:16:37;5.25;;;3.33;;
36371;SDS011;22398;51.346;12.372;2023-04-01T22:21:47;8.32;;;3.53;;
36371;SDS011;22398;51.346;12.372;2023-04-01T22:27:05;5.20;;;3.00;;
36371;SDS011;22398;51.346;12.372;2023-04-01T22:32:15;5.93;;;2.92;;
36371;SDS011;22398;51.346;12.372;2023-04-01T22:37:23;3.47;;;2.17;;
36371;SDS011;22398;51.346;12.372;2023-04-01T22:42:39;6.10;;;3.47;;
36371;SDS011;22398;51.346;12.372;2023-04-01T22:47:47;5.30;;;2.05;;
36371;SDS011;22398;51.346;12.372;2023-04-01T22:53:05;5.82;;;2.83;;
36371;SDS011;22398;51.346;12.372;2023-04-01T22:58:17;5.00;;;2.45;;
36371;SDS011;22398;51.346;12.372;2023-04-01T23:03:27;3.72;;;2.10;;
36371;SDS011;22398;51.346;12.372;2023-04-01T23:08:57;3.83;;;2.40;;
36371;SDS011;22398;51.346;12.372;2023-04-01T23:19:56;3.30;;;2.20;;
36371;SDS011;22398;51.346;12.372;2023-04-01T23:25:13;5.55;;;2.72;;
36371;SDS011;22398;51.346;12.372;2023-04-01T23:35:59;4.63;;;2.50;;
36371;SDS011;22398;51.346;12.372;2023-04-01T23:41:07;6.45;;;3.10;;
36371;SDS011;22398;51.346;12.372;2023-04-01T23:46:18;7.53;;;3.80;;
36371;SDS011;22398;51.346;12.372;2023-04-01T23:51:25;6.85;;;3.15;;
36371;SDS011;22398;51.346;12.372;2023-04-01T23:56:38;9.93;;;2.25;;
